sensor_id;sensor_type;location;lat;lon;timestamp;P1;durP1;ratioP1;P2;durP2;ratioP2
66739;SDS011;53653;52.188;8.602;2022-12-20T00:00:54;15.80;;;7.63;;
66739;SDS011;53653;52.188;8.602;2022-12-20T00:03:20;17.25;;;8.02;;
66739;SDS011;53653;52.188;8.602;2022-12-20T00:05:45;18.33;;;7.87;;
66739;SDS011;53653;52.188;8.602;2022-12-20T00:08:11;17.48;;;7.70;;
66739;SDS011;53653;52.188;8.602;2022-12-20T00:10:37;16.97;;;7.37;;
66739;SDS011;53653;52.188;8.602;2022-12-20T00:13:03;18.30;;;7.80;;
66739;SDS011;53653;52.188;8.602;2022-12-20T00:15:29;19.30;;;8.10;;
66739;SDS011;53653;52.188;8.602;2022-12-20T00:17:55;18.77;;;8.02;;
66739;SDS011;53653;52.188;8.602;2022-12-20T00:20:21;18.15;;;7.50;;
66739;SDS011;53653;52.188;8.602;2022-12-20T00:22:47;16.98;;;7.72;;
66739;SDS011;53653;52.188;8.602;2022-12-20T00:25:12;17.07;;;7.70;;
66739;SDS011;53653;52.188;8.602;2022-12-20T00:27:38;18.73;;;9.30;;
66739;SDS011;53653;52.188;8.602;2022-12-20T00:30:04;16.77;;;8.47;;
66739;SDS011;53653;52.188;8.602;2022-12-20T00:32:30;16.57;;;8.27;;
66739;SDS011;53653;52.188;8.602;2022-12-20T00:34:56;20.38;;;8.43;;
66739;SDS011;53653;52.188;8.602;2022-12-20T00:37:23;16.40;;;7.90;;
66739;SDS011;53653;52.188;8.602;2022-12-20T00:39:48;17.98;;;7.97;;
66739;SDS011;53653;52.188;8.602;2022-12-20T00:42:14;17.17;;;7.90;;
66739;SDS011;53653;52.188;8.602;2022-12-20T00:44:39;17.17;;;7.97;;
66739;SDS011;53653;52.188;8.602;2022-12-20T00:47:05;18.55;;;7.68;;
66739;SDS011;53653;52.188;8.602;2022-12-20T00:49:31;17.98;;;8.20;;
66739;SDS011;53653;52.188;8.602;2022-12-20T00:51:57;19.67;;;8.00;;
66739;SDS011;53653;52.188;8.602;2022-12-20T00:54:22;18.67;;;7.80;;
66739;SDS011;53653;52.188;8.602;2022-12-20T00:56:48;19.07;;;8.13;;
66739;SDS011;53653;52.188;8.602;2022-12-20T00:59:13;19.47;;;7.90;;
66739;SDS011;53653;52.188;8.602;2022-12-20T01:01:38;16.20;;;7.10;;
66739;SDS011;53653;52.188;8.602;2022-12-20T01:04:04;16.17;;;7.45;;
66739;SDS011;53653;52.188;8.602;2022-12-20T01:06:29;15.37;;;6.77;;
66739;SDS011;53653;52.188;8.602;2022-12-20T01:08:55;15.53;;;7.43;;
66739;SDS011;53653;52.188;8.602;2022-12-20T01:11:25;16.20;;;7.35;;
66739;SDS011;53653;52.188;8.602;2022-12-20T01:13:54;16.02;;;7.53;;
66739;SDS011;53653;52.188;8.602;2022-12-20T01:16:23;17.95;;;7.45;;
66739;SDS011;53653;52.188;8.602;2022-12-20T01:18:52;15.73;;;7.65;;
66739;SDS011;53653;52.188;8.602;2022-12-20T01:21:19;16.80;;;7.57;;
66739;SDS011;53653;52.188;8.602;2022-12-20T01:23:50;15.25;;;6.93;;
66739;SDS011;53653;52.188;8.602;2022-12-20T01:26:16;19.30;;;7.82;;
66739;SDS011;53653;52.188;8.602;2022-12-20T01:28:44;15.95;;;7.10;;
66739;SDS011;53653;52.188;8.602;2022-12-20T01:31:15;15.98;;;7.43;;
66739;SDS011;53653;52.188;8.602;2022-12-20T01:33:43;18.57;;;7.37;;
66739;SDS011;53653;52.188;8.602;2022-12-20T01:36:11;17.08;;;7.22;;
66739;SDS011;53653;52.188;8.602;2022-12-20T01:38:38;18.05;;;7.45;;
66739;SDS011;53653;52.188;8.602;2022-12-20T01:41:04;17.27;;;8.13;;
66739;SDS011;53653;52.188;8.602;2022-12-20T01:46:22;16.10;;;7.23;;
66739;SDS011;53653;52.188;8.602;2022-12-20T01:49:06;16.83;;;7.63;;
66739;SDS011;53653;52.188;8.602;2022-12-20T01:51:38;14.88;;;7.07;;
66739;SDS011;53653;52.188;8.602;2022-12-20T01:54:09;16.58;;;7.35;;
66739;SDS011;53653;52.188;8.602;2022-12-20T01:56:39;14.85;;;6.88;;
66739;SDS011;53653;52.188;8.602;2022-12-20T01:59:07;17.23;;;6.90;;
66739;SDS011;53653;52.188;8.602;2022-12-20T02:01:33;16.67;;;7.20;;
66739;SDS011;53653;52.188;8.602;2022-12-20T02:03:58;16.27;;;7.30;;
66739;SDS011;53653;52.188;8.602;2022-12-20T02:06:24;15.20;;;7.17;;
66739;SDS011;53653;52.188;8.602;2022-12-20T02:08:52;16.65;;;7.35;;
66739;SDS011;53653;52.188;8.602;2022-12-20T02:11:25;16.63;;;7.03;;
66739;SDS011;53653;52.188;8.602;2022-12-20T02:27:53;16.33;;;7.03;;
66739;SDS011;53653;52.188;8.602;2022-12-20T02:30:23;19.02;;;7.93;;
66739;SDS011;53653;52.188;8.602;2022-12-20T02:32:59;15.93;;;7.15;;
66739;SDS011;53653;52.188;8.602;2022-12-20T02:35:31;15.82;;;6.68;;
66739;SDS011;53653;52.188;8.602;2022-12-20T02:37:59;14.47;;;7.27;;
66739;SDS011;53653;52.188;8.602;2022-12-20T02:40:31;14.90;;;6.70;;
66739;SDS011;53653;52.188;8.602;2022-12-20T02:43:03;14.93;;;6.50;;
66739;SDS011;53653;52.188;8.602;2022-12-20T02:45:51;13.40;;;5.40;;
66739;SDS011;53653;52.188;8.602;2022-12-20T02:48:18;7.03;;;3.15;;
66739;SDS011;53653;52.188;8.602;2022-12-20T02:50:46;9.73;;;3.47;;
66739;SDS011;53653;52.188;8.602;2022-12-20T02:53:15;8.60;;;3.72;;
66739;SDS011;53653;52.188;8.602;2022-12-20T02:58:15;8.55;;;3.70;;
66739;SDS011;53653;52.188;8.602;2022-12-20T03:00:47;7.63;;;3.30;;
66739;SDS011;53653;52.188;8.602;2022-12-20T03:03:15;8.33;;;2.50;;
66739;SDS011;53653;52.188;8.602;2022-12-20T03:05:47;8.35;;;3.20;;
66739;SDS011;53653;52.188;8.602;2022-12-20T03:08:17;10.38;;;3.42;;
66739;SDS011;53653;52.188;8.602;2022-12-20T03:10:43;9.57;;;3.80;;
66739;SDS011;53653;52.188;8.602;2022-12-20T03:13:09;7.70;;;3.15;;
66739;SDS011;53653;52.188;8.602;2022-12-20T03:15:40;7.70;;;3.37;;
66739;SDS011;53653;52.188;8.602;2022-12-20T03:18:06;7.57;;;3.22;;
66739;SDS011;53653;52.188;8.602;2022-12-20T03:20:31;8.00;;;2.80;;
66739;SDS011;53653;52.188;8.602;2022-12-20T03:22:57;8.65;;;3.17;;
66739;SDS011;53653;52.188;8.602;2022-12-20T03:25:23;9.50;;;3.20;;
66739;SDS011;53653;52.188;8.602;2022-12-20T03:27:49;8.00;;;2.65;;
66739;SDS011;53653;52.188;8.602;2022-12-20T03:30:16;9.60;;;3.05;;
66739;SDS011;53653;52.188;8.602;2022-12-20T03:32:41;7.70;;;2.83;;
66739;SDS011;53653;52.188;8.602;2022-12-20T03:35:07;9.32;;;3.33;;
66739;SDS011;53653;52.188;8.602;2022-12-20T03:37:36;8.00;;;2.90;;
66739;SDS011;53653;52.188;8.602;2022-12-20T03:40:03;5.70;;;2.35;;
66739;SDS011;53653;52.188;8.602;2022-12-20T03:42:30;7.55;;;2.72;;
66739;SDS011;53653;52.188;8.602;2022-12-20T03:44:56;7.50;;;3.08;;
66739;SDS011;53653;52.188;8.602;2022-12-20T03:47:24;7.60;;;3.00;;
66739;SDS011;53653;52.188;8.602;2022-12-20T03:49:50;7.57;;;2.47;;
66739;SDS011;53653;52.188;8.602;2022-12-20T03:52:17;9.77;;;2.75;;
66739;SDS011;53653;52.188;8.602;2022-12-20T03:54:42;8.17;;;3.13;;
66739;SDS011;53653;52.188;8.602;2022-12-20T03:57:12;7.13;;;3.00;;
66739;SDS011;53653;52.188;8.602;2022-12-20T03:59:37;8.68;;;3.10;;
66739;SDS011;53653;52.188;8.602;2022-12-20T04:02:05;8.50;;;2.75;;
66739;SDS011;53653;52.188;8.602;2022-12-20T04:04:30;6.13;;;2.27;;
66739;SDS011;53653;52.188;8.602;2022-12-20T04:06:57;6.90;;;3.10;;
66739;SDS011;53653;52.188;8.602;2022-12-20T04:09:22;7.83;;;3.00;;
66739;SDS011;53653;52.188;8.602;2022-12-20T04:11:53;7.80;;;3.42;;
66739;SDS011;53653;52.188;8.602;2022-12-20T04:14:18;6.57;;;2.50;;
66739;SDS011;53653;52.188;8.602;2022-12-20T04:16:44;8.80;;;3.20;;
66739;SDS011;53653;52.188;8.602;2022-12-20T04:19:09;7.38;;;3.08;;
66739;SDS011;53653;52.188;8.602;2022-12-20T04:21:40;8.05;;;3.10;;
66739;SDS011;53653;52.188;8.602;2022-12-20T04:24:05;7.47;;;3.20;;
66739;SDS011;53653;52.188;8.602;2022-12-20T04:26:39;7.38;;;2.72;;
66739;SDS011;53653;52.188;8.602;2022-12-20T04:29:04;6.13;;;2.17;;
66739;SDS011;53653;52.188;8.602;2022-12-20T04:31:31;9.07;;;2.90;;
66739;SDS011;53653;52.188;8.602;2022-12-20T04:33:56;8.07;;;3.25;;
66739;SDS011;53653;52.188;8.602;2022-12-20T04:36:22;6.20;;;2.42;;
66739;SDS011;53653;52.188;8.602;2022-12-20T04:38:50;9.97;;;3.23;;
66739;SDS011;53653;52.188;8.602;2022-12-20T04:41:16;7.47;;;2.92;;
66739;SDS011;53653;52.188;8.602;2022-12-20T04:43:52;9.88;;;3.80;;
66739;SDS011;53653;52.188;8.602;2022-12-20T04:46:21;8.80;;;3.60;;
66739;SDS011;53653;52.188;8.602;2022-12-20T04:48:48;7.78;;;3.22;;
66739;SDS011;53653;52.188;8.602;2022-12-20T04:51:14;6.83;;;3.03;;
66739;SDS011;53653;52.188;8.602;2022-12-20T04:53:41;7.65;;;3.50;;
66739;SDS011;53653;52.188;8.602;2022-12-20T04:56:26;10.82;;;4.20;;
66739;SDS011;53653;52.188;8.602;2022-12-20T04:58:56;10.20;;;3.43;;
66739;SDS011;53653;52.188;8.602;2022-12-20T05:01:23;6.43;;;3.05;;
66739;SDS011;53653;52.188;8.602;2022-12-20T05:03:50;9.20;;;3.67;;
66739;SDS011;53653;52.188;8.602;2022-12-20T05:06:16;9.50;;;3.83;;
66739;SDS011;53653;52.188;8.602;2022-12-20T05:08:42;9.37;;;4.27;;
66739;SDS011;53653;52.188;8.602;2022-12-20T05:11:08;9.13;;;3.75;;
66739;SDS011;53653;52.188;8.602;2022-12-20T05:13:34;9.75;;;4.18;;
66739;SDS011;53653;52.188;8.602;2022-12-20T05:16:00;10.43;;;3.70;;
66739;SDS011;53653;52.188;8.602;2022-12-20T05:18:30;9.25;;;4.30;;
66739;SDS011;53653;52.188;8.602;2022-12-20T05:21:00;8.32;;;3.80;;
66739;SDS011;53653;52.188;8.602;2022-12-20T05:23:49;10.63;;;4.47;;
66739;SDS011;53653;52.188;8.602;2022-12-20T05:26:58;20.33;;;8.35;;
66739;SDS011;53653;52.188;8.602;2022-12-20T05:29:24;22.67;;;8.23;;
66739;SDS011;53653;52.188;8.602;2022-12-20T05:31:50;19.50;;;8.65;;
66739;SDS011;53653;52.188;8.602;2022-12-20T05:34:16;24.95;;;10.25;;
66739;SDS011;53653;52.188;8.602;2022-12-20T05:36:46;24.60;;;10.80;;
66739;SDS011;53653;52.188;8.602;2022-12-20T05:39:12;20.60;;;10.10;;
66739;SDS011;53653;52.188;8.602;2022-12-20T05:41:40;24.13;;;10.25;;
66739;SDS011;53653;52.188;8.602;2022-12-20T05:44:06;20.85;;;10.32;;
66739;SDS011;53653;52.188;8.602;2022-12-20T05:46:34;22.63;;;10.00;;
66739;SDS011;53653;52.188;8.602;2022-12-20T05:49:03;23.77;;;10.10;;
66739;SDS011;53653;52.188;8.602;2022-12-20T05:51:29;22.30;;;10.18;;
66739;SDS011;53653;52.188;8.602;2022-12-20T05:53:57;23.48;;;10.98;;
66739;SDS011;53653;52.188;8.602;2022-12-20T05:56:38;24.63;;;11.23;;
66739;SDS011;53653;52.188;8.602;2022-12-20T05:59:04;20.23;;;9.93;;
66739;SDS011;53653;52.188;8.602;2022-12-20T06:01:30;24.48;;;12.15;;
66739;SDS011;53653;52.188;8.602;2022-12-20T06:03:58;24.27;;;11.23;;
66739;SDS011;53653;52.188;8.602;2022-12-20T06:06:23;25.65;;;11.52;;
66739;SDS011;53653;52.188;8.602;2022-12-20T06:08:49;26.17;;;10.90;;
66739;SDS011;53653;52.188;8.602;2022-12-20T06:11:34;24.33;;;10.65;;
66739;SDS011;53653;52.188;8.602;2022-12-20T06:14:04;24.40;;;11.50;;
66739;SDS011;53653;52.188;8.602;2022-12-20T06:16:30;27.00;;;11.73;;
66739;SDS011;53653;52.188;8.602;2022-12-20T06:18:56;26.87;;;11.90;;
66739;SDS011;53653;52.188;8.602;2022-12-20T06:21:21;25.05;;;10.90;;
66739;SDS011;53653;52.188;8.602;2022-12-20T06:23:47;25.73;;;11.93;;
66739;SDS011;53653;52.188;8.602;2022-12-20T06:26:15;26.77;;;10.98;;
66739;SDS011;53653;52.188;8.602;2022-12-20T06:28:46;26.63;;;12.07;;
66739;SDS011;53653;52.188;8.602;2022-12-20T06:31:19;28.92;;;12.38;;
66739;SDS011;53653;52.188;8.602;2022-12-20T06:33:48;24.48;;;10.82;;
66739;SDS011;53653;52.188;8.602;2022-12-20T06:36:15;24.50;;;11.80;;
66739;SDS011;53653;52.188;8.602;2022-12-20T06:38:41;26.85;;;11.65;;
66739;SDS011;53653;52.188;8.602;2022-12-20T06:41:07;27.02;;;12.13;;
66739;SDS011;53653;52.188;8.602;2022-12-20T06:43:32;27.77;;;11.50;;
66739;SDS011;53653;52.188;8.602;2022-12-20T06:45:58;24.73;;;11.37;;
66739;SDS011;53653;52.188;8.602;2022-12-20T06:48:23;28.40;;;11.85;;
66739;SDS011;53653;52.188;8.602;2022-12-20T06:50:50;27.40;;;11.85;;
66739;SDS011;53653;52.188;8.602;2022-12-20T06:53:16;26.57;;;12.33;;
66739;SDS011;53653;52.188;8.602;2022-12-20T06:55:42;29.85;;;12.13;;
66739;SDS011;53653;52.188;8.602;2022-12-20T06:58:08;26.63;;;12.13;;
66739;SDS011;53653;52.188;8.602;2022-12-20T07:00:36;25.27;;;12.23;;
66739;SDS011;53653;52.188;8.602;2022-12-20T07:03:01;24.30;;;11.55;;
66739;SDS011;53653;52.188;8.602;2022-12-20T07:05:27;25.30;;;10.83;;
66739;SDS011;53653;52.188;8.602;2022-12-20T07:07:52;22.63;;;11.20;;
66739;SDS011;53653;52.188;8.602;2022-12-20T07:10:18;24.93;;;11.33;;
66739;SDS011;53653;52.188;8.602;2022-12-20T07:12:43;22.40;;;10.52;;
66739;SDS011;53653;52.188;8.602;2022-12-20T07:15:09;18.10;;;7.63;;
66739;SDS011;53653;52.188;8.602;2022-12-20T07:17:35;17.90;;;7.05;;
66739;SDS011;53653;52.188;8.602;2022-12-20T07:20:00;11.90;;;5.43;;
66739;SDS011;53653;52.188;8.602;2022-12-20T07:22:26;10.95;;;5.53;;
66739;SDS011;53653;52.188;8.602;2022-12-20T07:24:52;13.47;;;5.70;;
66739;SDS011;53653;52.188;8.602;2022-12-20T07:27:18;12.38;;;5.90;;
66739;SDS011;53653;52.188;8.602;2022-12-20T07:29:43;12.23;;;6.15;;
66739;SDS011;53653;52.188;8.602;2022-12-20T07:32:10;12.47;;;6.13;;
66739;SDS011;53653;52.188;8.602;2022-12-20T07:34:36;22.75;;;9.77;;
66739;SDS011;53653;52.188;8.602;2022-12-20T07:37:02;23.03;;;9.57;;
66739;SDS011;53653;52.188;8.602;2022-12-20T07:39:28;25.27;;;11.10;;
66739;SDS011;53653;52.188;8.602;2022-12-20T07:41:54;28.90;;;11.20;;
66739;SDS011;53653;52.188;8.602;2022-12-20T07:44:21;22.15;;;10.93;;
66739;SDS011;53653;52.188;8.602;2022-12-20T07:46:47;25.37;;;11.83;;
66739;SDS011;53653;52.188;8.602;2022-12-20T07:49:13;26.48;;;12.18;;
66739;SDS011;53653;52.188;8.602;2022-12-20T07:51:49;29.20;;;12.48;;
66739;SDS011;53653;52.188;8.602;2022-12-20T07:54:19;23.75;;;10.63;;
66739;SDS011;53653;52.188;8.602;2022-12-20T07:56:49;29.58;;;13.02;;
66739;SDS011;53653;52.188;8.602;2022-12-20T07:59:18;26.43;;;12.47;;
66739;SDS011;53653;52.188;8.602;2022-12-20T08:01:48;28.00;;;12.63;;
66739;SDS011;53653;52.188;8.602;2022-12-20T08:04:15;26.38;;;11.95;;
66739;SDS011;53653;52.188;8.602;2022-12-20T08:06:47;23.57;;;11.77;;
66739;SDS011;53653;52.188;8.602;2022-12-20T08:09:14;24.02;;;11.82;;
66739;SDS011;53653;52.188;8.602;2022-12-20T08:11:41;28.83;;;12.52;;
66739;SDS011;53653;52.188;8.602;2022-12-20T08:14:10;26.98;;;12.77;;
66739;SDS011;53653;52.188;8.602;2022-12-20T08:16:36;26.30;;;12.60;;
66739;SDS011;53653;52.188;8.602;2022-12-20T08:19:02;26.70;;;12.27;;
66739;SDS011;53653;52.188;8.602;2022-12-20T08:21:28;28.83;;;13.57;;
66739;SDS011;53653;52.188;8.602;2022-12-20T08:23:54;28.80;;;12.20;;
66739;SDS011;53653;52.188;8.602;2022-12-20T08:26:21;30.40;;;13.27;;
66739;SDS011;53653;52.188;8.602;2022-12-20T08:28:47;26.38;;;13.07;;
66739;SDS011;53653;52.188;8.602;2022-12-20T08:31:12;27.50;;;12.30;;
66739;SDS011;53653;52.188;8.602;2022-12-20T08:33:38;26.57;;;12.93;;
66739;SDS011;53653;52.188;8.602;2022-12-20T08:36:06;27.00;;;13.18;;
66739;SDS011;53653;52.188;8.602;2022-12-20T08:38:34;26.60;;;12.60;;
66739;SDS011;53653;52.188;8.602;2022-12-20T08:41:00;26.00;;;12.63;;
66739;SDS011;53653;52.188;8.602;2022-12-20T08:43:28;28.33;;;13.57;;
66739;SDS011;53653;52.188;8.602;2022-12-20T08:45:53;29.03;;;13.63;;
66739;SDS011;53653;52.188;8.602;2022-12-20T08:48:20;29.40;;;13.35;;
66739;SDS011;53653;52.188;8.602;2022-12-20T08:50:47;22.75;;;11.05;;
66739;SDS011;53653;52.188;8.602;2022-12-20T08:53:17;32.10;;;14.43;;
66739;SDS011;53653;52.188;8.602;2022-12-20T08:55:43;32.35;;;14.65;;
66739;SDS011;53653;52.188;8.602;2022-12-20T08:58:09;30.67;;;14.70;;
66739;SDS011;53653;52.188;8.602;2022-12-20T09:00:34;31.77;;;14.30;;
66739;SDS011;53653;52.188;8.602;2022-12-20T09:03:00;28.27;;;13.73;;
66739;SDS011;53653;52.188;8.602;2022-12-20T09:05:26;26.80;;;13.10;;
66739;SDS011;53653;52.188;8.602;2022-12-20T09:07:52;33.90;;;14.20;;
66739;SDS011;53653;52.188;8.602;2022-12-20T09:10:18;31.45;;;13.73;;
66739;SDS011;53653;52.188;8.602;2022-12-20T09:12:43;31.40;;;13.25;;
66739;SDS011;53653;52.188;8.602;2022-12-20T09:15:09;34.40;;;15.07;;
66739;SDS011;53653;52.188;8.602;2022-12-20T09:17:35;29.77;;;14.23;;
66739;SDS011;53653;52.188;8.602;2022-12-20T09:20:01;33.60;;;14.97;;
66739;SDS011;53653;52.188;8.602;2022-12-20T09:22:28;37.10;;;15.15;;
66739;SDS011;53653;52.188;8.602;2022-12-20T09:24:54;32.47;;;14.80;;
66739;SDS011;53653;52.188;8.602;2022-12-20T09:27:20;32.80;;;15.95;;
66739;SDS011;53653;52.188;8.602;2022-12-20T09:29:47;28.97;;;13.33;;
66739;SDS011;53653;52.188;8.602;2022-12-20T09:32:12;29.98;;;13.43;;
66739;SDS011;53653;52.188;8.602;2022-12-20T09:34:38;27.42;;;12.98;;
66739;SDS011;53653;52.188;8.602;2022-12-20T09:37:04;28.57;;;14.23;;
66739;SDS011;53653;52.188;8.602;2022-12-20T09:39:30;31.73;;;14.55;;
66739;SDS011;53653;52.188;8.602;2022-12-20T09:41:56;30.50;;;14.03;;
66739;SDS011;53653;52.188;8.602;2022-12-20T09:44:33;30.55;;;13.52;;
66739;SDS011;53653;52.188;8.602;2022-12-20T09:47:03;29.77;;;14.38;;
66739;SDS011;53653;52.188;8.602;2022-12-20T09:49:35;26.83;;;13.10;;
66739;SDS011;53653;52.188;8.602;2022-12-20T09:54:44;27.47;;;13.27;;
66739;SDS011;53653;52.188;8.602;2022-12-20T09:59:57;27.70;;;13.52;;
66739;SDS011;53653;52.188;8.602;2022-12-20T10:02:24;29.08;;;13.00;;
66739;SDS011;53653;52.188;8.602;2022-12-20T10:04:51;25.77;;;14.17;;
66739;SDS011;53653;52.188;8.602;2022-12-20T10:10:16;23.13;;;12.10;;
66739;SDS011;53653;52.188;8.602;2022-12-20T10:16:15;25.38;;;12.80;;
66739;SDS011;53653;52.188;8.602;2022-12-20T10:21:31;21.52;;;11.10;;
66739;SDS011;53653;52.188;8.602;2022-12-20T10:24:17;16.67;;;8.48;;
66739;SDS011;53653;52.188;8.602;2022-12-20T10:26:45;12.00;;;5.93;;
66739;SDS011;53653;52.188;8.602;2022-12-20T10:29:14;11.88;;;4.32;;
66739;SDS011;53653;52.188;8.602;2022-12-20T10:31:40;8.53;;;3.93;;
66739;SDS011;53653;52.188;8.602;2022-12-20T10:34:06;7.50;;;2.80;;
66739;SDS011;53653;52.188;8.602;2022-12-20T10:36:33;8.97;;;3.83;;
66739;SDS011;53653;52.188;8.602;2022-12-20T10:39:01;12.50;;;3.60;;
66739;SDS011;53653;52.188;8.602;2022-12-20T10:41:29;7.75;;;3.17;;
66739;SDS011;53653;52.188;8.602;2022-12-20T10:44:22;8.75;;;3.70;;
66739;SDS011;53653;52.188;8.602;2022-12-20T10:46:57;7.80;;;3.25;;
66739;SDS011;53653;52.188;8.602;2022-12-20T10:49:31;11.57;;;4.43;;
66739;SDS011;53653;52.188;8.602;2022-12-20T10:54:37;10.65;;;3.45;;
66739;SDS011;53653;52.188;8.602;2022-12-20T11:02:36;8.07;;;3.63;;
66739;SDS011;53653;52.188;8.602;2022-12-20T11:07:35;8.00;;;3.63;;
66739;SDS011;53653;52.188;8.602;2022-12-20T11:10:08;7.18;;;3.38;;
66739;SDS011;53653;52.188;8.602;2022-12-20T11:12:56;8.00;;;3.50;;
66739;SDS011;53653;52.188;8.602;2022-12-20T11:15:24;8.83;;;3.43;;
66739;SDS011;53653;52.188;8.602;2022-12-20T11:20:43;13.73;;;5.75;;
66739;SDS011;53653;52.188;8.602;2022-12-20T11:26:23;8.18;;;4.07;;
66739;SDS011;53653;52.188;8.602;2022-12-20T11:29:15;9.13;;;4.03;;
66739;SDS011;53653;52.188;8.602;2022-12-20T11:32:09;9.68;;;4.20;;
66739;SDS011;53653;52.188;8.602;2022-12-20T11:37:30;8.75;;;4.20;;
66739;SDS011;53653;52.188;8.602;2022-12-20T11:56:25;9.23;;;3.87;;
66739;SDS011;53653;52.188;8.602;2022-12-20T11:58:59;7.90;;;3.55;;
66739;SDS011;53653;52.188;8.602;2022-12-20T12:01:31;10.30;;;4.65;;
66739;SDS011;53653;52.188;8.602;2022-12-20T12:04:16;10.45;;;4.47;;
66739;SDS011;53653;52.188;8.602;2022-12-20T12:06:47;8.50;;;4.00;;
66739;SDS011;53653;52.188;8.602;2022-12-20T12:09:24;9.17;;;3.20;;
66739;SDS011;53653;52.188;8.602;2022-12-20T12:12:01;11.73;;;3.70;;
66739;SDS011;53653;52.188;8.602;2022-12-20T12:20:22;9.75;;;4.20;;
66739;SDS011;53653;52.188;8.602;2022-12-20T12:23:00;9.20;;;4.20;;
66739;SDS011;53653;52.188;8.602;2022-12-20T12:25:31;9.25;;;4.40;;
66739;SDS011;53653;52.188;8.602;2022-12-20T12:27:56;10.00;;;4.80;;
66739;SDS011;53653;52.188;8.602;2022-12-20T12:30:22;10.67;;;4.60;;
66739;SDS011;53653;52.188;8.602;2022-12-20T12:43:54;9.90;;;4.70;;
66739;SDS011;53653;52.188;8.602;2022-12-20T12:46:26;9.73;;;4.30;;
66739;SDS011;53653;52.188;8.602;2022-12-20T12:49:02;10.43;;;3.78;;
66739;SDS011;53653;52.188;8.602;2022-12-20T12:51:38;7.47;;;3.08;;
66739;SDS011;53653;52.188;8.602;2022-12-20T12:54:26;10.90;;;4.23;;
66739;SDS011;53653;52.188;8.602;2022-12-20T12:57:27;11.20;;;4.15;;
66739;SDS011;53653;52.188;8.602;2022-12-20T12:59:46;10.68;;;4.60;;
66739;SDS011;53653;52.188;8.602;2022-12-20T13:07:24;10.32;;;4.20;;
66739;SDS011;53653;52.188;8.602;2022-12-20T13:09:56;8.32;;;3.58;;
66739;SDS011;53653;52.188;8.602;2022-12-20T13:17:48;7.32;;;3.03;;
66739;SDS011;53653;52.188;8.602;2022-12-20T13:20:16;8.32;;;3.35;;
66739;SDS011;53653;52.188;8.602;2022-12-20T13:25:35;8.20;;;3.23;;
66739;SDS011;53653;52.188;8.602;2022-12-20T13:41:26;9.32;;;3.58;;
66739;SDS011;53653;52.188;8.602;2022-12-20T13:44:25;9.60;;;3.90;;
66739;SDS011;53653;52.188;8.602;2022-12-20T13:49:42;9.65;;;4.03;;
66739;SDS011;53653;52.188;8.602;2022-12-20T13:54:40;10.43;;;4.28;;
66739;SDS011;53653;52.188;8.602;2022-12-20T13:57:10;8.80;;;3.90;;
66739;SDS011;53653;52.188;8.602;2022-12-20T13:59:42;9.18;;;3.72;;
66739;SDS011;53653;52.188;8.602;2022-12-20T14:02:16;7.57;;;2.97;;
66739;SDS011;53653;52.188;8.602;2022-12-20T14:04:45;9.45;;;3.63;;
66739;SDS011;53653;52.188;8.602;2022-12-20T14:07:29;13.45;;;4.97;;
66739;SDS011;53653;52.188;8.602;2022-12-20T14:10:00;13.43;;;5.60;;
66739;SDS011;53653;52.188;8.602;2022-12-20T14:12:28;12.48;;;5.10;;
66739;SDS011;53653;52.188;8.602;2022-12-20T14:14:55;20.88;;;8.07;;
66739;SDS011;53653;52.188;8.602;2022-12-20T14:17:31;17.55;;;6.97;;
66739;SDS011;53653;52.188;8.602;2022-12-20T14:25:11;21.98;;;9.27;;
66739;SDS011;53653;52.188;8.602;2022-12-20T14:27:40;22.10;;;9.32;;
66739;SDS011;53653;52.188;8.602;2022-12-20T14:30:23;19.30;;;8.45;;
66739;SDS011;53653;52.188;8.602;2022-12-20T14:32:54;19.50;;;8.33;;
66739;SDS011;53653;52.188;8.602;2022-12-20T14:35:21;28.38;;;10.30;;
66739;SDS011;53653;52.188;8.602;2022-12-20T14:38:00;34.72;;;13.55;;
66739;SDS011;53653;52.188;8.602;2022-12-20T14:40:28;21.50;;;9.88;;
66739;SDS011;53653;52.188;8.602;2022-12-20T14:42:54;14.47;;;6.30;;
66739;SDS011;53653;52.188;8.602;2022-12-20T14:45:25;13.60;;;5.30;;
66739;SDS011;53653;52.188;8.602;2022-12-20T14:47:56;18.38;;;7.68;;
66739;SDS011;53653;52.188;8.602;2022-12-20T14:50:28;14.20;;;6.63;;
66739;SDS011;53653;52.188;8.602;2022-12-20T14:52:57;13.52;;;5.82;;
66739;SDS011;53653;52.188;8.602;2022-12-20T14:55:29;17.73;;;6.82;;
66739;SDS011;53653;52.188;8.602;2022-12-20T14:57:57;19.73;;;6.35;;
66739;SDS011;53653;52.188;8.602;2022-12-20T15:00:24;13.93;;;5.27;;
66739;SDS011;53653;52.188;8.602;2022-12-20T15:10:39;10.70;;;3.67;;
66739;SDS011;53653;52.188;8.602;2022-12-20T15:13:13;11.97;;;3.80;;
66739;SDS011;53653;52.188;8.602;2022-12-20T15:15:40;10.48;;;4.07;;
66739;SDS011;53653;52.188;8.602;2022-12-20T15:18:16;11.90;;;4.47;;
66739;SDS011;53653;52.188;8.602;2022-12-20T15:20:43;13.32;;;5.93;;
66739;SDS011;53653;52.188;8.602;2022-12-20T15:23:20;10.35;;;4.53;;
66739;SDS011;53653;52.188;8.602;2022-12-20T15:25:46;8.50;;;3.45;;
66739;SDS011;53653;52.188;8.602;2022-12-20T15:28:14;9.60;;;3.50;;
66739;SDS011;53653;52.188;8.602;2022-12-20T15:30:41;7.67;;;3.17;;
66739;SDS011;53653;52.188;8.602;2022-12-20T15:33:10;11.77;;;4.20;;
66739;SDS011;53653;52.188;8.602;2022-12-20T15:35:49;10.10;;;3.80;;
66739;SDS011;53653;52.188;8.602;2022-12-20T15:38:20;9.15;;;3.60;;
66739;SDS011;53653;52.188;8.602;2022-12-20T15:40:48;8.52;;;3.70;;
66739;SDS011;53653;52.188;8.602;2022-12-20T15:43:17;9.17;;;3.97;;
66739;SDS011;53653;52.188;8.602;2022-12-20T15:45:45;8.98;;;3.63;;
66739;SDS011;53653;52.188;8.602;2022-12-20T15:48:15;8.52;;;3.60;;
66739;SDS011;53653;52.188;8.602;2022-12-20T15:50:44;10.60;;;4.18;;
66739;SDS011;53653;52.188;8.602;2022-12-20T15:53:15;12.77;;;5.10;;
66739;SDS011;53653;52.188;8.602;2022-12-20T15:55:42;11.20;;;4.83;;
66739;SDS011;53653;52.188;8.602;2022-12-20T15:58:08;10.20;;;4.65;;
66739;SDS011;53653;52.188;8.602;2022-12-20T16:00:36;11.75;;;5.03;;
66739;SDS011;53653;52.188;8.602;2022-12-20T16:03:04;8.88;;;3.33;;
66739;SDS011;53653;52.188;8.602;2022-12-20T16:05:42;12.00;;;5.47;;
66739;SDS011;53653;52.188;8.602;2022-12-20T16:08:07;8.93;;;4.95;;
66739;SDS011;53653;52.188;8.602;2022-12-20T16:10:33;8.37;;;4.63;;
66739;SDS011;53653;52.188;8.602;2022-12-20T16:12:59;12.25;;;5.43;;
66739;SDS011;53653;52.188;8.602;2022-12-20T16:15:24;10.37;;;5.00;;
66739;SDS011;53653;52.188;8.602;2022-12-20T16:17:50;10.37;;;4.63;;
66739;SDS011;53653;52.188;8.602;2022-12-20T16:20:16;9.15;;;4.13;;
66739;SDS011;53653;52.188;8.602;2022-12-20T16:22:41;10.93;;;4.93;;
66739;SDS011;53653;52.188;8.602;2022-12-20T16:25:12;9.95;;;5.35;;
66739;SDS011;53653;52.188;8.602;2022-12-20T16:27:49;11.35;;;5.90;;
66739;SDS011;53653;52.188;8.602;2022-12-20T16:30:14;13.93;;;5.93;;
66739;SDS011;53653;52.188;8.602;2022-12-20T16:32:40;13.15;;;7.00;;
66739;SDS011;53653;52.188;8.602;2022-12-20T16:35:09;13.40;;;5.87;;
66739;SDS011;53653;52.188;8.602;2022-12-20T16:37:47;11.80;;;4.28;;
66739;SDS011;53653;52.188;8.602;2022-12-20T16:40:13;12.83;;;6.70;;
66739;SDS011;53653;52.188;8.602;2022-12-20T16:42:39;14.38;;;6.63;;
66739;SDS011;53653;52.188;8.602;2022-12-20T16:45:05;13.77;;;7.40;;
66739;SDS011;53653;52.188;8.602;2022-12-20T16:47:35;14.60;;;6.63;;
66739;SDS011;53653;52.188;8.602;2022-12-20T16:50:00;11.80;;;5.83;;
66739;SDS011;53653;52.188;8.602;2022-12-20T16:52:26;11.60;;;5.47;;
66739;SDS011;53653;52.188;8.602;2022-12-20T16:54:51;14.83;;;7.27;;
66739;SDS011;53653;52.188;8.602;2022-12-20T16:57:17;11.77;;;6.30;;